createdAt,value
2019-03-21T00:02:28.958Z,9.60
2019-03-21T00:07:32.714Z,9.90
2019-03-21T00:12:36.139Z,9.10
2019-03-21T00:17:46.415Z,8.50
2019-03-21T00:22:49.838Z,7.93
2019-03-21T00:27:53.522Z,8.37
2019-03-21T00:32:57.369Z,8.20
2019-03-21T00:38:00.770Z,8.03
2019-03-21T00:43:05.298Z,8.13
2019-03-21T00:48:11.449Z,8.53
2019-03-21T00:53:14.857Z,8.63
2019-03-21T00:58:18.569Z,8.30
2019-03-21T01:03:21.865Z,8.23
2019-03-21T01:08:25.551Z,8.30
2019-03-21T01:13:32.347Z,8.48
2019-03-21T01:18:36.957Z,9.00
2019-03-21T01:23:40.605Z,8.27
2019-03-21T01:28:44.322Z,9.25
2019-03-21T01:33:47.646Z,8.70
2019-03-21T01:38:51.055Z,9.30
2019-03-21T01:43:54.133Z,9.03
2019-03-21T01:48:57.271Z,9.90
2019-03-21T01:54:00.921Z,9.30
2019-03-21T01:59:04.041Z,9.97
2019-03-21T02:04:07.726Z,9.70
2019-03-21T02:09:11.147Z,8.90
2019-03-21T02:14:14.562Z,8.93
2019-03-21T02:19:17.971Z,9.30
2019-03-21T02:24:21.786Z,8.97
2019-03-21T02:29:25.513Z,9.20
2019-03-21T02:34:29.239Z,9.73
2019-03-21T02:39:32.809Z,9.93
2019-03-21T02:44:36.287Z,9.83
2019-03-21T02:49:39.797Z,10.00
2019-03-21T02:54:43.526Z,9.60
2019-03-21T02:59:47.318Z,8.80
2019-03-21T03:04:50.747Z,8.90
2019-03-21T03:09:54.213Z,8.60
2019-03-21T03:14:57.893Z,8.47
2019-03-21T03:20:01.013Z,9.00
2019-03-21T03:25:05.956Z,8.63
2019-03-21T03:30:12.450Z,8.80
2019-03-21T03:35:16.258Z,7.90
2019-03-21T03:40:32.800Z,8.37
2019-03-21T03:45:39.592Z,8.43
2019-03-21T03:50:43.000Z,8.50
2019-03-21T03:55:46.680Z,8.37
2019-03-21T04:00:50.436Z,8.80
2019-03-21T04:05:53.932Z,9.47
2019-03-21T04:10:57.623Z,9.43
2019-03-21T04:16:02.677Z,9.10
2019-03-21T04:21:14.080Z,9.57
2019-03-21T04:26:32.721Z,9.10
2019-03-21T04:31:36.420Z,9.27
2019-03-21T04:36:39.815Z,9.33
2019-03-21T04:41:44.386Z,9.85
2019-03-21T04:46:47.795Z,9.70
2019-03-21T04:51:51.234Z,9.30
2019-03-21T04:56:54.350Z,9.23
2019-03-21T05:01:57.433Z,9.57
2019-03-21T05:07:00.826Z,10.07
2019-03-21T05:12:04.614Z,9.90
2019-03-21T05:17:08.380Z,9.93
2019-03-21T05:22:11.703Z,10.80
2019-03-21T05:27:15.120Z,10.20
2019-03-21T05:32:18.757Z,10.63
2019-03-21T05:37:21.845Z,10.87
2019-03-21T05:42:25.252Z,10.47
2019-03-21T05:47:28.654Z,10.87
2019-03-21T05:52:32.107Z,10.60
2019-03-21T05:57:35.198Z,10.27
2019-03-21T06:02:38.615Z,10.03
2019-03-21T06:07:43.693Z,10.83
2019-03-21T06:12:46.962Z,10.53
2019-03-21T06:17:54.479Z,9.80
2019-03-21T06:23:21.927Z,10.48
2019-03-21T06:28:24.990Z,7.90
2019-03-21T06:33:28.392Z,7.40
2019-03-21T06:38:33.237Z,7.93
2019-03-21T06:43:36.944Z,7.23
2019-03-21T06:48:40.265Z,8.17
2019-03-21T06:53:43.342Z,8.70
2019-03-21T06:58:47.005Z,8.27
2019-03-21T07:03:50.405Z,8.30
2019-03-21T07:08:53.814Z,8.33
2019-03-21T07:13:57.126Z,8.00
2019-03-21T07:19:00.843Z,8.30
2019-03-21T07:24:04.323Z,8.20
2019-03-21T07:29:07.954Z,8.07
2019-03-21T07:34:11.734Z,7.92
2019-03-21T07:39:15.551Z,7.70
2019-03-21T07:44:18.959Z,7.27
2019-03-21T07:49:22.796Z,7.70
2019-03-21T07:54:25.979Z,7.53
2019-03-21T07:59:29.280Z,7.43
2019-03-21T08:04:32.663Z,7.50
2019-03-21T08:09:36.035Z,7.57
2019-03-21T08:14:39.275Z,7.23
2019-03-21T08:19:42.961Z,7.27
2019-03-21T08:24:46.372Z,8.20
2019-03-21T08:29:49.438Z,8.00
2019-03-21T08:34:52.523Z,7.63
2019-03-21T08:39:55.934Z,7.37
2019-03-21T08:44:59.343Z,7.40
2019-03-21T08:50:02.487Z,7.30
2019-03-21T08:55:07.232Z,7.95
2019-03-21T09:00:11.971Z,7.50
2019-03-21T09:05:15.293Z,7.40
2019-03-21T09:10:18.599Z,7.60
2019-03-21T09:15:22.017Z,7.80
2019-03-21T09:20:25.658Z,7.70
2019-03-21T09:25:29.313Z,6.83
2019-03-21T09:30:32.627Z,7.57
2019-03-21T09:35:35.954Z,6.73
2019-03-21T09:40:39.296Z,7.20
2019-03-21T09:45:42.370Z,7.27
2019-03-21T09:50:45.451Z,7.10
2019-03-21T09:55:48.863Z,6.63
2019-03-21T10:00:52.170Z,7.33
2019-03-21T10:05:55.482Z,7.13
2019-03-21T10:10:58.786Z,7.33
2019-03-21T10:16:02.207Z,7.40
2019-03-21T10:21:05.548Z,6.83
2019-03-21T10:26:08.959Z,7.13
2019-03-21T10:31:12.368Z,7.50
2019-03-21T10:36:16.271Z,7.87
2019-03-21T10:41:20.114Z,7.77
2019-03-21T10:46:23.536Z,7.83
2019-03-21T10:51:26.618Z,7.10
2019-03-21T10:56:30.029Z,7.40
2019-03-21T11:01:34.338Z,6.90
2019-03-21T11:06:38.839Z,7.77
2019-03-21T11:11:42.268Z,7.30
2019-03-21T11:16:45.577Z,7.00
2019-03-21T11:21:49.236Z,7.60
2019-03-21T11:26:52.315Z,6.60
2019-03-21T11:31:55.736Z,6.27
2019-03-21T11:36:58.810Z,6.70
2019-03-21T11:42:02.315Z,6.47
2019-03-21T11:47:05.721Z,6.20
2019-03-21T11:52:17.751Z,6.13
2019-03-21T11:57:14.162Z,6.40
2019-03-21T12:02:26.617Z,6.50
2019-03-21T12:07:22.936Z,6.23
2019-03-21T12:12:26.004Z,5.97
2019-03-21T12:17:29.642Z,5.53
2019-03-21T12:22:32.717Z,5.47
2019-03-21T12:27:36.364Z,5.17
2019-03-21T12:32:39.445Z,5.87
2019-03-21T12:37:42.760Z,5.90
2019-03-21T12:42:46.093Z,4.50
2019-03-21T12:47:49.414Z,4.33
2019-03-21T12:52:52.818Z,3.80
2019-03-21T12:57:56.374Z,3.80
2019-03-21T13:02:59.797Z,4.53
2019-03-21T13:08:02.874Z,4.00
2019-03-21T13:13:06.720Z,4.10
2019-03-21T13:18:10.481Z,4.03
2019-03-21T13:23:13.883Z,4.13
2019-03-21T13:28:17.296Z,4.23
2019-03-21T13:33:20.703Z,4.13
2019-03-21T13:38:23.780Z,4.40
2019-03-21T13:43:26.863Z,4.00
2019-03-21T13:48:30.552Z,4.30
2019-03-21T13:53:33.946Z,4.40
2019-03-21T13:58:37.687Z,4.20
2019-03-21T14:03:41.089Z,5.00
2019-03-21T14:08:44.162Z,3.73
2019-03-21T14:13:47.479Z,4.10
2019-03-21T14:18:50.801Z,3.80
2019-03-21T14:23:53.873Z,4.10
2019-03-21T14:28:57.280Z,3.80
2019-03-21T14:34:00.694Z,4.10
2019-03-21T14:39:06.893Z,4.23
2019-03-21T14:44:10.566Z,4.20
2019-03-21T14:49:13.634Z,4.23
2019-03-21T14:54:17.047Z,4.43
2019-03-21T14:59:20.354Z,4.37
2019-03-21T15:04:23.423Z,4.17
2019-03-21T15:09:26.844Z,4.37
2019-03-21T15:14:31.998Z,4.50
2019-03-21T15:19:35.385Z,4.47
2019-03-21T15:24:39.063Z,5.00
2019-03-21T15:29:42.479Z,4.97
2019-03-21T15:34:46.147Z,5.00
2019-03-21T15:39:49.225Z,4.80
2019-03-21T15:44:52.646Z,4.43
2019-03-21T15:49:55.706Z,8.17
2019-03-21T15:54:59.115Z,7.67
2019-03-21T16:00:02.682Z,8.33
2019-03-21T16:05:06.155Z,8.60
2019-03-21T16:10:09.742Z,7.83
2019-03-21T16:15:13.968Z,8.23
2019-03-21T16:20:17.378Z,7.73
2019-03-21T16:25:20.686Z,8.60
2019-03-21T16:30:24.326Z,8.90
2019-03-21T16:35:27.399Z,9.93
2019-03-21T16:40:30.718Z,9.50
2019-03-21T16:45:34.026Z,9.50
2019-03-21T16:50:37.435Z,8.60
2019-03-21T16:55:40.510Z,7.43
2019-03-21T17:00:44.162Z,6.77
2019-03-21T17:05:47.465Z,7.00
2019-03-21T17:10:50.872Z,6.70
2019-03-21T17:15:53.942Z,7.33
2019-03-21T17:20:57.591Z,6.93
2019-03-21T17:26:00.674Z,6.97
2019-03-21T17:31:03.759Z,8.17
2019-03-21T17:36:07.074Z,7.87
2019-03-21T17:41:10.485Z,8.17
2019-03-21T17:46:13.830Z,8.30
2019-03-21T17:51:17.269Z,8.43
2019-03-21T17:56:20.347Z,8.67
2019-03-21T18:01:23.667Z,8.20
2019-03-21T18:06:27.000Z,7.77
2019-03-21T18:11:30.411Z,8.97
2019-03-21T18:16:33.820Z,8.47
2019-03-21T18:21:36.940Z,9.00
2019-03-21T18:26:40.245Z,8.60
2019-03-21T18:31:43.565Z,7.90
2019-03-21T18:36:46.934Z,7.83
2019-03-21T18:41:50.002Z,6.77
2019-03-21T18:46:53.070Z,6.00
2019-03-21T18:51:56.477Z,6.00
2019-03-21T18:57:00.148Z,5.87
2019-03-21T19:02:03.440Z,6.43
2019-03-21T19:07:07.106Z,6.77
2019-03-21T19:12:10.584Z,11.47
2019-03-21T19:17:13.653Z,13.27
2019-03-21T19:22:17.407Z,10.03
2019-03-21T19:27:20.859Z,7.30
2019-03-21T19:32:24.273Z,5.67
2019-03-21T19:37:27.692Z,6.07
2019-03-21T19:42:31.484Z,6.10
2019-03-21T19:47:34.867Z,6.70
2019-03-21T19:52:37.951Z,6.50
2019-03-21T19:57:41.431Z,6.33
2019-03-21T20:02:44.798Z,6.40
2019-03-21T20:07:48.118Z,6.67
2019-03-21T20:12:51.526Z,6.17
2019-03-21T20:17:54.940Z,6.10
2019-03-21T20:22:58.423Z,6.33
2019-03-21T20:28:01.806Z,6.07
2019-03-21T20:33:05.586Z,6.73
2019-03-21T20:38:09.312Z,6.97
2019-03-21T20:43:12.637Z,6.53
2019-03-21T20:48:16.338Z,7.47
2019-03-21T20:53:20.066Z,7.60
2019-03-21T20:58:23.141Z,7.43
2019-03-21T21:03:26.551Z,7.67
2019-03-21T21:08:29.919Z,7.95
2019-03-21T21:13:32.994Z,7.57
2019-03-21T21:18:36.399Z,7.30
2019-03-21T21:23:39.811Z,7.60
2019-03-21T21:28:43.212Z,7.50
2019-03-21T21:33:46.611Z,8.80
2019-03-21T21:38:50.296Z,8.43
2019-03-21T21:43:54.007Z,9.33
2019-03-21T21:48:57.400Z,9.57
2019-03-21T21:54:00.751Z,9.63
2019-03-21T21:59:03.893Z,9.97
2019-03-21T22:04:07.573Z,9.67
2019-03-21T22:09:10.646Z,10.17
2019-03-21T22:14:13.724Z,9.97
2019-03-21T22:19:17.108Z,9.93
2019-03-21T22:24:20.523Z,10.10
2019-03-21T22:29:23.933Z,10.27
2019-03-21T22:34:27.645Z,9.63
2019-03-21T22:39:30.718Z,10.00
2019-03-21T22:44:34.081Z,9.93
2019-03-21T22:49:37.801Z,10.13
2019-03-21T22:54:41.119Z,9.55
2019-03-21T22:59:44.539Z,10.67
2019-03-21T23:04:48.255Z,10.87
2019-03-21T23:09:51.965Z,11.93
2019-03-21T23:14:55.678Z,11.43
2019-03-21T23:19:58.995Z,11.03
2019-03-21T23:25:02.186Z,11.23
2019-03-21T23:30:12.079Z,11.27
2019-03-21T23:35:15.905Z,10.90
2019-03-21T23:40:18.977Z,11.17
2019-03-21T23:45:22.056Z,11.50
2019-03-21T23:50:25.462Z,10.80
2019-03-21T23:55:28.854Z,10.87
